Time;durP1;ratioP1;P1;durP2;ratioP2;P2;SDS_P1;SDS_P2;PMS_P1;PMS_P2;Temp;Humidity;BMP_temperature;BMP_pressure;BME280_temperature;BME280_humidity;BME280_pressure;Samples;Min_cycle;Max_cycle;Signal;HPM_P1;HPM_P2
2022/04/19 00:00:48;;;;;;;2.95;1.85;;;;;;;5.27;81.55;99805.06;5006669;28;19967;-30
2022/04/19 00:03:17;;;;;;;3.33;1.95;;;;;;;5.25;81.25;99807.94;5039753;28;20042;-32
2022/04/19 00:05:44;;;;;;;3.17;2.03;;;;;;;5.30;81.42;99799.41;5008052;28;20026;-34
2022/04/19 00:08:11;;;;;;;4.70;2.00;;;;;;;5.27;81.48;99799.78;5039729;28;20061;-29
2022/04/19 00:10:38;;;;;;;3.55;2.05;;;;;;;5.26;81.11;99792.88;5039271;28;20522;-34
2022/04/19 00:13:05;;;;;;;3.78;2.05;;;;;;;5.13;82.64;99783.81;5039375;28;20116;-30
2022/04/19 00:15:31;;;;;;;3.25;2.00;;;;;;;5.34;82.00;99792.75;5039557;28;20105;-31
2022/04/19 00:17:59;;;;;;;5.50;2.60;;;;;;;5.14;83.08;99790.72;5039711;28;20038;-34
2022/04/19 00:20:25;;;;;;;3.53;2.20;;;;;;;5.36;80.69;99803.94;5039354;28;20040;-31
2022/04/19 00:22:52;;;;;;;3.55;2.40;;;;;;;5.18;81.82;99788.53;5006633;28;20534;-29
2022/04/19 00:25:18;;;;;;;4.88;3.30;;;;;;;5.10;81.47;99788.66;5039206;28;20510;-30
2022/04/19 00:27:44;;;;;;;3.42;2.25;;;;;;;5.21;81.76;99807.50;5039528;28;20065;-30
2022/04/19 00:30:11;;;;;;;4.43;2.40;;;;;;;5.11;82.04;99792.94;5039463;28;20026;-29
2022/04/19 00:32:38;;;;;;;4.72;2.20;;;;;;;5.09;84.26;99802.88;5006144;28;20045;-29
2022/04/19 00:35:09;;;;;;;3.97;2.40;;;;;;;5.17;84.29;99800.94;5039881;28;20053;-29
2022/04/19 00:37:36;;;;;;;4.20;2.83;;;;;;;5.17;83.81;99795.66;5011331;28;20088;-29
2022/04/19 00:40:06;;;;;;;4.40;2.70;;;;;;;5.18;83.96;99799.09;5042890;28;20025;-31
2022/04/19 00:42:32;;;;;;;4.03;2.38;;;;;;;5.22;83.97;99780.03;5042860;28;20025;-29
2022/04/19 00:44:59;;;;;;;4.40;2.45;;;;;;;5.52;83.48;99798.38;5026662;28;20044;-34
2022/04/19 00:47:26;;;;;;;4.18;2.50;;;;;;;5.55;82.26;99776.81;5011296;28;20112;-31
2022/04/19 00:49:52;;;;;;;4.72;2.53;;;;;;;5.71;81.79;99799.50;5042849;28;20022;-30
2022/04/19 00:52:19;;;;;;;3.88;2.50;;;;;;;5.63;83.73;99794.38;5042550;28;20026;-33
2022/04/19 00:54:46;;;;;;;4.00;2.30;;;;;;;5.41;82.44;99790.94;5043159;28;20123;-34
2022/04/19 00:57:13;;;;;;;4.72;2.63;;;;;;;5.50;83.38;99789.81;5042672;28;20017;-32
2022/04/19 00:59:38;;;;;;;4.97;2.58;;;;;;;5.33;83.61;99799.88;5042964;28;20065;-30
2022/04/19 01:02:04;;;;;;;4.30;2.13;;;;;;;5.21;85.08;99799.56;5010750;28;20111;-32
2022/04/19 01:04:30;;;;;;;4.22;2.47;;;;;;;5.27;83.99;99794.50;5010706;28;20497;-30
2022/04/19 01:06:57;;;;;;;4.20;2.65;;;;;;;5.19;85.41;99791.00;5010788;28;20076;-30
2022/04/19 01:09:23;;;;;;;5.63;2.40;;;;;;;4.94;85.41;99758.03;5010915;28;20022;-30
2022/04/19 01:14:36;;;;;;;5.40;2.97;;;;;;;5.16;85.03;99785.25;5010561;28;20052;-30
2022/04/19 01:17:03;;;;;;;7.53;2.97;;;;;;;4.96;86.51;99785.09;5009319;28;20030;-30
2022/04/19 01:19:29;;;;;;;3.65;2.40;;;;;;;4.70;86.05;99778.53;5042034;28;20088;-33
2022/04/19 01:21:55;;;;;;;4.40;2.60;;;;;;;4.81;86.93;99772.75;5010783;28;20437;-31
2022/04/19 01:24:22;;;;;;;6.15;2.92;;;;;;;4.61;88.03;99761.16;5008970;28;20030;-29
2022/04/19 01:26:51;;;;;;;4.40;2.90;;;;;;;4.76;86.55;99772.50;5042588;28;20026;-35
2022/04/19 01:29:16;;;;;;;6.18;2.58;;;;;;;4.75;86.77;99770.88;5042156;28;20034;-31
2022/04/19 01:31:43;;;;;;;5.07;2.63;;;;;;;4.57;87.93;99760.72;5010407;28;20103;-30
2022/04/19 01:34:09;;;;;;;4.70;2.80;;;;;;;4.67;88.02;99767.53;5010011;28;20037;-29
2022/04/19 01:36:36;;;;;;;4.20;2.42;;;;;;;4.70;86.98;99772.41;5041614;28;20061;-32
2022/04/19 01:39:07;;;;;;;6.82;2.55;;;;;;;4.56;88.40;99761.72;5042246;28;20116;-31
2022/04/19 01:41:33;;;;;;;4.00;2.58;;;;;;;4.71;88.03;99753.75;5041988;28;20030;-29
2022/04/19 01:43:59;;;;;;;4.25;2.83;;;;;;;4.88;87.42;99770.16;5041988;28;20022;-33
2022/04/19 01:46:26;;;;;;;4.13;2.58;;;;;;;5.29;86.14;99772.16;5041231;28;20542;-29
2022/04/19 01:48:54;;;;;;;5.20;3.00;;;;;;;5.26;85.19;99771.72;5041629;28;20032;-31
2022/04/19 01:51:21;;;;;;;4.93;2.80;;;;;;;5.11;86.02;99769.97;5010119;28;20033;-32
2022/04/19 01:53:47;;;;;;;5.70;2.90;;;;;;;4.98;87.08;99783.06;5041856;28;20117;-30
2022/04/19 01:56:13;;;;;;;8.00;4.53;;;;;;;5.01;86.75;99767.66;5008644;28;20033;-30
2022/04/19 01:58:38;;;;;;;5.85;3.72;;;;;;;5.26;84.61;99783.13;5009882;28;20029;-31
2022/04/19 02:01:04;;;;;;;4.80;3.00;;;;;;;5.15;83.74;99771.25;5009600;28;20037;-32
2022/04/19 02:03:29;;;;;;;4.95;2.78;;;;;;;5.20;84.56;99779.41;5009518;28;20383;-29
2022/04/19 02:05:55;;;;;;;5.22;3.30;;;;;;;5.12;86.32;99768.97;5009888;28;20445;-31
2022/04/19 02:08:20;;;;;;;5.88;3.38;;;;;;;5.16;85.92;99764.94;5009538;28;20050;-32
2022/04/19 02:10:46;;;;;;;5.70;3.63;;;;;;;5.18;86.33;99770.84;5009758;28;20044;-31
2022/04/19 02:13:13;;;;;;;6.07;3.92;;;;;;;5.05;88.38;99754.88;5041429;28;20026;-33
2022/04/19 02:15:39;;;;;;;5.80;3.60;;;;;;;5.23;87.37;99768.47;5041147;28;20053;-29
2022/04/19 02:18:05;;;;;;;6.10;4.00;;;;;;;5.37;87.23;99768.53;5009432;28;20552;-30
2022/04/19 02:20:31;;;;;;;7.45;4.30;;;;;;;5.48;85.37;99749.53;5009635;28;20755;-29
2022/04/19 02:22:57;;;;;;;6.60;4.40;;;;;;;5.40;85.81;99752.31;5041096;28;20036;-32
2022/04/19 02:25:24;;;;;;;6.63;3.90;;;;;;;5.21;87.35;99769.63;5009337;28;20112;-30
2022/04/19 02:27:52;;;;;;;6.00;3.53;;;;;;;5.11;86.17;99771.78;5009260;28;20021;-31
2022/04/19 02:30:18;;;;;;;6.60;4.07;;;;;;;5.17;84.99;99748.06;5007321;28;20033;-33
2022/04/19 02:32:45;;;;;;;6.80;3.88;;;;;;;5.17;84.68;99763.94;5009298;28;20062;-31
2022/04/19 02:35:11;;;;;;;6.47;4.22;;;;;;;5.29;84.53;99760.75;5009041;28;20125;-29
2022/04/19 02:37:37;;;;;;;7.35;3.90;;;;;;;5.39;85.60;99771.81;5009052;28;20021;-30
2022/04/19 02:40:03;;;;;;;6.03;4.20;;;;;;;5.41;84.79;99759.22;5040779;28;20030;-32
2022/04/19 02:42:28;;;;;;;6.70;4.07;;;;;;;5.44;85.06;99766.78;5007446;28;20065;-30
2022/04/19 02:44:54;;;;;;;8.07;4.53;;;;;;;5.30;86.08;99747.34;5008794;28;20058;-30
2022/04/19 02:47:19;;;;;;;6.60;4.25;;;;;;;5.21;86.85;99749.31;5009139;28;20405;-29
2022/04/19 02:49:45;;;;;;;5.80;4.03;;;;;;;5.47;86.68;99755.81;5009108;28;20034;-30
2022/04/19 02:52:11;;;;;;;6.70;4.10;;;;;;;5.14;86.27;99766.94;5009004;28;20026;-31
2022/04/19 02:54:37;;;;;;;7.10;3.88;;;;;;;5.24;85.61;99756.84;5040365;28;20068;-35
2022/04/19 02:57:03;;;;;;;7.03;4.50;;;;;;;5.15;86.03;99751.91;5007166;28;20041;-30
2022/04/19 02:59:29;;;;;;;9.07;5.88;;;;;;;5.13;86.41;99744.19;5039846;28;20037;-32
2022/04/19 03:01:55;;;;;;;10.45;6.78;;;;;;;5.42;86.57;99768.81;5040388;28;20022;-30
2022/04/19 03:04:20;;;;;;;11.82;5.93;;;;;;;5.30;86.11;99767.69;5008738;28;20054;-31
2022/04/19 03:06:47;;;;;;;8.82;5.35;;;;;;;5.01;87.55;99753.63;5008698;28;20121;-32
2022/04/19 03:09:13;;;;;;;8.15;5.20;;;;;;;5.09;86.98;99744.72;5040142;28;20030;-31
2022/04/19 03:11:38;;;;;;;6.72;4.47;;;;;;;5.08;86.51;99757.13;5008418;28;20029;-30
2022/04/19 03:14:07;;;;;;;7.50;4.53;;;;;;;5.34;86.14;99776.88;5008604;28;20033;-29
2022/04/19 03:16:33;;;;;;;8.65;4.97;;;;;;;5.14;86.62;99774.88;5040075;28;20124;-34
2022/04/19 03:18:58;;;;;;;6.50;4.35;;;;;;;5.39;86.47;99777.09;5007031;28;20120;-29
2022/04/19 03:21:24;;;;;;;7.80;4.55;;;;;;;5.35;86.37;99776.69;5008632;28;20084;-33
2022/04/19 03:29:19;;;;;;;7.72;4.63;;;;;;;5.34;87.68;99795.38;5008318;28;20045;-37
2022/04/19 03:31:45;;;;;;;7.07;4.60;;;;;;;5.33;87.17;99799.03;5008313;28;20029;-30
2022/04/19 03:34:11;;;;;;;8.70;6.05;;;;;;;5.12;87.61;99795.41;5008148;28;20025;-31
2022/04/19 03:36:36;;;;;;;10.25;7.70;;;;;;;4.98;87.79;99770.66;5006942;28;20050;-33
2022/04/19 03:39:03;;;;;;;9.85;5.50;;;;;;;5.19;86.66;99788.34;5007624;28;20049;-32
2022/04/19 03:41:29;;;;;;;7.55;4.53;;;;;;;5.09;86.87;99782.56;5008410;28;20478;-34
2022/04/19 03:43:55;;;;;;;7.20;4.85;;;;;;;5.18;86.07;99776.13;5008079;28;20081;-30
2022/04/19 03:46:20;;;;;;;11.05;6.50;;;;;;;5.08;87.37;99791.50;5039418;28;20095;-30
2022/04/19 03:48:46;;;;;;;8.13;5.30;;;;;;;5.18;86.50;99781.41;5007884;28;20030;-37
2022/04/19 03:51:11;;;;;;;8.27;5.55;;;;;;;5.01;87.94;99790.63;5006675;28;20493;-30
2022/04/19 03:53:37;;;;;;;8.38;4.90;;;;;;;5.26;86.02;99798.97;5007579;28;20066;-29
2022/04/19 03:56:06;;;;;;;7.80;4.45;;;;;;;5.34;85.65;99798.03;5007827;28;20038;-29
2022/04/19 03:58:32;;;;;;;7.03;4.78;;;;;;;5.36;85.97;99790.72;5006305;28;20030;-31
2022/04/19 04:00:59;;;;;;;8.73;6.00;;;;;;;5.24;86.18;99793.88;5006403;28;20046;-37
2022/04/19 04:03:24;;;;;;;7.25;5.05;;;;;;;5.26;85.35;99800.81;5039669;28;20545;-30
2022/04/19 04:05:50;;;;;;;15.13;7.13;;;;;;;5.36;84.78;99772.22;5007772;28;20030;-29
2022/04/19 04:08:16;;;;;;;8.63;5.30;;;;;;;5.49;86.26;99782.88;5007629;28;20041;-29
2022/04/19 04:10:42;;;;;;;8.68;5.78;;;;;;;5.38;85.99;99791.34;5042711;28;20133;-29
2022/04/19 04:13:08;;;;;;;7.95;5.25;;;;;;;5.26;86.41;99792.88;5010549;28;20037;-30
2022/04/19 04:15:33;;;;;;;6.82;4.55;;;;;;;5.40;86.45;99800.72;5011982;28;20041;-29
2022/04/19 04:17:59;;;;;;;9.15;6.55;;;;;;;5.41;86.16;99780.38;5011670;28;20111;-32
2022/04/19 04:20:24;;;;;;;9.93;6.38;;;;;;;5.51;85.31;99786.16;5011637;28;20088;-35
2022/04/19 04:22:50;;;;;;;7.32;4.50;;;;;;;5.54;84.48;99801.66;5011554;28;20445;-30
2022/04/19 04:25:15;;;;;;;7.20;4.85;;;;;;;5.74;84.53;99806.25;5011737;28;20033;-30
2022/04/19 04:27:40;;;;;;;9.07;5.03;;;;;;;5.56;84.77;99802.28;5011850;28;20026;-30
2022/04/19 04:30:06;;;;;;;8.13;4.90;;;;;;;5.55;83.31;99808.56;5043427;28;20040;-29
2022/04/19 04:32:32;;;;;;;7.82;4.60;;;;;;;5.46;84.37;99793.84;5043173;28;20025;-29
2022/04/19 04:34:58;;;;;;;6.78;4.70;;;;;;;5.59;84.64;99815.09;5010073;28;20892;-33
2022/04/19 04:37:24;;;;;;;6.72;3.90;;;;;;;5.34;81.35;99801.47;5010202;28;20054;-29
2022/04/19 04:39:50;;;;;;;7.93;5.25;;;;;;;5.46;83.14;99817.66;5011425;28;20466;-34
2022/04/19 04:42:16;;;;;;;7.30;4.68;;;;;;;5.56;82.60;99815.50;5043188;28;20045;-29
2022/04/19 04:44:41;;;;;;;7.93;4.82;;;;;;;5.62;82.48;99816.56;5011073;28;20022;-30
2022/04/19 04:49:51;;;;;;;8.45;4.07;;;;;;;5.55;83.93;99807.75;5010869;28;20060;-29
2022/04/19 04:52:18;;;;;;;6.55;3.63;;;;;;;5.53;83.40;99821.16;5011028;28;20026;-32
2022/04/19 04:54:44;;;;;;;6.13;3.88;;;;;;;5.72;82.03;99824.97;5011248;28;20034;-30
2022/04/19 04:57:09;;;;;;;6.50;3.90;;;;;;;5.77;81.82;99834.97;5026192;28;20033;-30
2022/04/19 04:59:36;;;;;;;8.10;3.97;;;;;;;5.56;83.76;99814.69;5011020;28;20058;-33
2022/04/19 05:02:03;;;;;;;7.93;4.55;;;;;;;5.84;81.83;99827.88;5011022;28;20482;-33
2022/04/19 05:04:29;;;;;;;7.28;4.85;;;;;;;5.67;81.91;99822.06;5008994;28;20129;-30
2022/04/19 05:06:55;;;;;;;8.30;4.32;;;;;;;5.86;82.33;99825.84;5042741;28;20026;-30
2022/04/19 05:09:20;;;;;;;6.65;3.55;;;;;;;5.63;81.06;99829.56;5009507;28;20037;-35
2022/04/19 05:11:46;;;;;;;7.90;4.82;;;;;;;5.53;85.35;99826.44;5010624;28;20033;-33
2022/04/19 05:14:15;;;;;;;8.93;5.57;;;;;;;5.77;82.70;99838.44;5042576;28;20022;-29
2022/04/19 05:16:42;;;;;;;10.15;6.15;;;;;;;6.02;81.68;99841.47;5042148;28;20026;-35
2022/04/19 05:19:08;;;;;;;7.80;4.93;;;;;;;5.96;81.22;99846.72;5010538;28;20033;-32
2022/04/19 05:21:33;;;;;;;6.35;3.90;;;;;;;6.03;80.07;99827.22;5008652;28;20037;-29
2022/04/19 05:23:58;;;;;;;7.85;4.30;;;;;;;5.86;81.76;99831.16;5010724;28;20026;-29
2022/04/19 05:26:28;;;;;;;5.95;3.85;;;;;;;5.78;79.76;99828.66;5010345;28;20083;-34
2022/04/19 05:28:54;;;;;;;6.55;4.00;;;;;;;5.92;80.62;99846.25;5010464;28;20034;-33
2022/04/19 05:31:19;;;;;;;7.63;3.85;;;;;;;5.96;80.93;99850.19;5010426;28;20450;-30
2022/04/19 05:33:45;;;;;;;6.25;3.60;;;;;;;6.06;81.79;99851.69;5010095;28;20036;-30
2022/04/19 05:36:12;;;;;;;5.80;3.22;;;;;;;5.91;82.11;99849.94;5010346;28;20053;-30
2022/04/19 05:38:37;;;;;;;5.30;3.20;;;;;;;5.83;79.49;99837.66;5010195;28;20049;-30
2022/04/19 05:41:03;;;;;;;7.35;4.03;;;;;;;5.59;80.44;99851.31;5042281;28;20040;-29
2022/04/19 05:43:28;;;;;;;8.10;3.80;;;;;;;5.64;79.67;99836.50;5008869;28;20025;-30
2022/04/19 05:45:55;;;;;;;5.32;3.28;;;;;;;5.89;78.91;99851.16;5010342;28;20433;-29
2022/04/19 05:48:20;;;;;;;7.30;4.47;;;;;;;5.90;77.44;99839.53;5009754;28;20037;-30
2022/04/19 05:50:46;;;;;;;8.18;3.80;;;;;;;6.12;80.57;99857.00;5010130;28;20045;-36
2022/04/19 05:53:11;;;;;;;5.03;3.20;;;;;;;6.07;77.70;99858.59;5010429;28;20030;-33
2022/04/19 05:55:37;;;;;;;6.28;3.90;;;;;;;6.17;79.75;99864.34;5010184;28;20601;-33
2022/04/19 05:58:03;;;;;;;6.07;3.97;;;;;;;6.04;80.04;99842.09;5009923;28;20030;-29
2022/04/19 06:00:28;;;;;;;7.50;4.57;;;;;;;6.27;81.89;99854.22;5008304;28;20041;-29
2022/04/19 06:05:38;;;;;;;7.28;4.47;;;;;;;6.45;78.77;99856.38;5010007;28;20103;-31
2022/04/19 06:08:03;;;;;;;6.20;3.80;;;;;;;6.40;77.94;99858.78;5009782;28;20034;-30
2022/04/19 06:10:29;;;;;;;6.15;3.72;;;;;;;6.21;77.79;99844.41;5009450;28;20109;-33
2022/04/19 06:12:54;;;;;;;7.32;3.90;;;;;;;6.27;78.81;99864.00;5009867;28;20479;-33
2022/04/19 06:15:20;;;;;;;7.57;4.72;;;;;;;6.03;78.37;99853.72;5009430;28;20022;-29
2022/04/19 06:17:45;;;;;;;6.28;3.90;;;;;;;6.02;79.10;99867.13;5041416;28;20034;-29
2022/04/19 06:20:12;;;;;;;7.15;4.38;;;;;;;5.96;78.96;99868.72;5009598;28;20549;-31
2022/04/19 06:22:38;;;;;;;8.20;5.03;;;;;;;5.81;79.41;99849.47;5008143;28;20425;-33
2022/04/19 06:25:05;;;;;;;6.43;3.88;;;;;;;6.07;78.46;99871.84;5041341;28;20100;-36
2022/04/19 06:27:31;;;;;;;7.20;4.28;;;;;;;6.13;79.30;99863.13;5040931;28;20428;-32
2022/04/19 06:29:57;;;;;;;7.82;4.30;;;;;;;6.31;77.26;99887.25;5040867;28;20029;-30
2022/04/19 06:32:24;;;;;;;9.10;5.32;;;;;;;6.16;78.62;99883.91;5041032;28;20117;-30
2022/04/19 06:34:49;;;;;;;5.43;3.55;;;;;;;5.95;77.65;99876.88;5009261;28;20052;-31
2022/04/19 06:37:15;;;;;;;5.78;3.90;;;;;;;6.20;78.61;99861.34;5009051;28;20401;-31
2022/04/19 06:39:41;;;;;;;4.85;3.13;;;;;;;6.76;76.40;99885.03;5009350;28;20105;-30
2022/04/19 06:42:07;;;;;;;5.72;3.70;;;;;;;6.42;79.15;99889.38;5009214;28;20026;-30
2022/04/19 06:44:32;;;;;;;7.10;4.18;;;;;;;6.51;78.73;99882.06;5040422;28;20489;-35
2022/04/19 06:46:58;;;;;;;7.00;3.33;;;;;;;6.69;74.32;99873.59;5009134;28;20038;-34
2022/04/19 06:49:23;;;;;;;6.30;3.33;;;;;;;7.08;74.94;99876.56;5009105;28;20025;-29
2022/04/19 06:51:49;;;;;;;5.57;3.42;;;;;;;7.29;74.10;99894.16;5009216;28;20034;-33
2022/04/19 06:54:15;;;;;;;6.20;3.45;;;;;;;7.17;72.76;99892.09;5008857;28;20437;-33
2022/04/19 06:56:41;;;;;;;5.78;2.95;;;;;;;7.24;72.94;99874.34;5040196;28;20056;-40
2022/04/19 06:59:08;;;;;;;4.97;2.97;;;;;;;7.25;70.89;99885.78;5040136;28;20065;-32
2022/04/19 07:01:39;;;;;;;5.72;3.42;;;;;;;7.19;73.52;99892.72;5040564;28;20092;-30
2022/04/19 07:04:05;;;;;;;7.43;3.80;;;;;;;7.27;75.04;99896.19;5008984;28;20021;-36
2022/04/19 07:06:31;;;;;;;6.00;3.17;;;;;;;7.31;73.49;99882.31;5008830;28;20380;-31
2022/04/19 07:08:56;;;;;;;5.82;3.50;;;;;;;7.38;72.83;99896.41;5008429;28;20104;-33
2022/04/19 07:11:22;;;;;;;5.18;3.08;;;;;;;7.42;74.79;99899.50;5008021;28;20033;-31
2022/04/19 07:13:47;;;;;;;3.90;2.47;;;;;;;7.26;72.53;99873.34;5039844;28;20775;-30
2022/04/19 07:16:13;;;;;;;5.57;2.72;;;;;;;6.86;72.97;99894.44;5007047;28;20498;-31
2022/04/19 07:18:38;;;;;;;4.38;2.55;;;;;;;6.95;69.65;99887.97;5008056;28;20037;-31
2022/04/19 07:26:38;;;;;;;9.93;4.82;;;;;;;6.69;74.65;99916.00;5007574;28;20104;-33
2022/04/19 07:29:07;;;;;;;8.00;5.10;;;;;;;6.33;77.62;99909.06;5039894;28;20632;-29
2022/04/19 07:31:33;;;;;;;5.68;3.70;;;;;;;6.19;80.29;99910.00;5008135;28;20064;-29
2022/04/19 07:33:59;;;;;;;7.70;4.40;;;;;;;6.38;77.93;99909.31;5008259;28;20034;-34
2022/04/19 07:36:24;;;;;;;8.45;4.57;;;;;;;6.08;78.77;99914.00;5039287;28;20119;-33
2022/04/19 07:38:50;;;;;;;7.18;4.28;;;;;;;5.79;80.04;99914.97;5007764;28;20025;-30
2022/04/19 07:41:17;;;;;;;5.22;3.40;;;;;;;5.64;80.31;99902.66;5008255;28;20467;-30
2022/04/19 07:43:44;;;;;;;6.03;3.58;;;;;;;5.58;80.45;99906.06;5007966;28;20022;-30
2022/04/19 07:46:10;;;;;;;8.02;3.85;;;;;;;5.36;82.31;99907.88;5039669;28;20030;-33
2022/04/19 07:48:37;;;;;;;7.72;4.18;;;;;;;5.39;82.55;99898.75;5039468;28;20040;-38
2022/04/19 07:51:03;;;;;;;9.68;5.97;;;;;;;5.64;82.82;99892.06;5039525;28;20030;-30
2022/04/19 07:53:28;;;;;;;33.40;17.02;;;;;;;5.75;82.58;99911.09;5007910;28;20030;-32
2022/04/19 07:55:57;;;;;;;17.67;10.05;;;;;;;5.62;83.39;99890.63;5007839;28;20042;-33
2022/04/19 07:58:24;;;;;;;14.98;8.80;;;;;;;5.94;82.82;99891.88;5007614;28;20022;-31
2022/04/19 08:00:49;;;;;;;9.07;5.70;;;;;;;6.19;79.21;99910.00;5039499;28;20033;-35
2022/04/19 08:03:15;;;;;;;24.33;14.25;;;;;;;6.15;80.20;99916.69;5048265;28;20428;-29
2022/04/19 08:05:41;;;;;;;29.30;18.15;;;;;;;6.18;78.81;99903.09;5025564;28;20017;-31
2022/04/19 08:08:06;;;;;;;15.60;8.93;;;;;;;6.43;81.44;99911.38;5026957;28;20060;-30
2022/04/19 08:10:32;;;;;;;13.57;9.82;;;;;;;6.53;77.16;99889.81;5024465;28;20421;-31
2022/04/19 08:12:57;;;;;;;9.85;5.80;;;;;;;6.64;78.23;99913.13;5027269;28;20034;-31
2022/04/19 08:15:24;;;;;;;16.92;11.27;;;;;;;6.68;76.16;99914.38;5027558;28;20031;-31
2022/04/19 08:17:49;;;;;;;17.05;9.45;;;;;;;6.67;76.61;99911.91;5025848;28;20033;-31
2022/04/19 08:20:15;;;;;;;15.25;9.68;;;;;;;6.83;79.11;99925.63;5027166;28;20544;-36
2022/04/19 08:22:41;;;;;;;8.40;5.55;;;;;;;7.17;78.11;99912.47;5027414;28;20116;-30
2022/04/19 08:25:10;;;;;;;9.07;5.95;;;;;;;7.43;76.15;99919.69;5026242;28;20026;-32
2022/04/19 08:27:41;;;;;;;13.15;7.90;;;;;;;7.52;75.04;99917.66;5026155;28;20040;-33
2022/04/19 08:30:08;;;;;;;7.22;3.63;;;;;;;6.98;73.67;99892.84;5027480;28;20030;-30
2022/04/19 08:32:33;;;;;;;6.95;4.38;;;;;;;7.28;75.56;99897.84;5025762;28;20028;-30
2022/04/19 08:34:59;;;;;;;8.57;5.28;;;;;;;7.31;75.01;99902.72;5026680;28;20128;-32
2022/04/19 08:37:30;;;;;;;7.18;3.83;;;;;;;7.50;73.33;99909.91;5025785;28;20392;-32
2022/04/19 08:39:55;;;;;;;7.30;4.00;;;;;;;8.28;72.41;99914.56;5025919;28;20088;-37
2022/04/19 08:42:21;;;;;;;50.42;14.45;;;;;;;7.94;70.71;99900.50;5027255;28;20043;-31
2022/04/19 08:44:47;;;;;;;9.52;5.07;;;;;;;8.21;69.59;99913.75;5027277;28;20425;-32
2022/04/19 08:47:14;;;;;;;7.15;3.78;;;;;;;8.60;69.74;99912.06;5027049;28;20029;-34
2022/04/19 08:49:41;;;;;;;7.95;4.63;;;;;;;8.82;75.41;99904.63;5027098;28;20038;-30
2022/04/19 08:52:08;;;;;;;5.75;3.72;;;;;;;8.84;70.33;99914.00;5025639;28;20486;-29
2022/04/19 08:57:30;;;;;;;75.00;29.27;;;;;;;8.62;66.08;99910.00;5029813;28;20045;-29
2022/04/19 09:00:00;;;;;;;23.83;11.15;;;;;;;8.53;63.58;99913.94;5029337;28;20120;-34
2022/04/19 09:02:29;;;;;;;18.02;10.63;;;;;;;8.66;66.55;99903.25;5030653;28;20082;-31
2022/04/19 09:05:17;;;;;;;20.17;12.57;;;;;;;8.74;68.72;99908.31;5030782;28;20410;-29
2022/04/19 09:07:44;;;;;;;19.20;11.93;;;;;;;8.84;67.36;99907.88;5029593;28;20072;-30
2022/04/19 09:10:16;;;;;;;6.93;4.20;;;;;;;8.61;66.60;99911.03;5030573;28;20033;-34
2022/04/19 09:12:55;;;;;;;9.60;7.03;;;;;;;8.64;63.70;99897.31;5030850;28;20030;-29
2022/04/19 09:15:21;;;;;;;6.28;4.20;;;;;;;8.94;59.92;99912.75;5029121;28;20036;-30
2022/04/19 09:17:48;;;;;;;5.35;3.63;;;;;;;8.97;68.81;99915.81;5030585;28;20026;-35
2022/04/19 09:20:15;;;;;;;6.22;3.88;;;;;;;9.01;67.04;99911.69;5028939;28;20502;-29
2022/04/19 09:22:42;;;;;;;5.75;3.75;;;;;;;9.25;67.67;99901.31;5028586;28;20095;-32
2022/04/19 09:25:24;;;;;;;6.22;3.45;;;;;;;9.75;71.24;99909.38;5028921;28;20040;-30
2022/04/19 09:27:51;;;;;;;5.00;3.40;;;;;;;9.43;62.90;99885.44;5030337;28;20120;-29
2022/04/19 09:30:21;;;;;;;6.05;3.78;;;;;;;9.50;64.05;99912.03;5028995;28;20048;-30
2022/04/19 09:33:05;;;;;;;5.15;3.38;;;;;;;9.90;64.55;99903.72;5028794;28;20030;-29
2022/04/19 09:35:32;;;;;;;6.20;3.33;;;;;;;9.84;59.90;99908.06;5029656;28;20060;-30
2022/04/19 09:37:57;;;;;;;6.10;3.60;;;;;;;9.56;61.97;99916.50;5028802;28;20386;-30
2022/04/19 09:40:33;;;;;;;7.53;4.10;;;;;;;9.10;61.00;99903.47;5030372;28;20033;-32
2022/04/19 09:43:21;;;;;;;6.57;4.13;;;;;;;8.87;66.42;99907.47;5028187;28;20041;-30
2022/04/19 09:45:56;;;;;;;6.78;4.05;;;;;;;8.85;66.88;99910.34;5029719;28;20132;-35
2022/04/19 09:48:34;;;;;;;6.10;3.88;;;;;;;8.54;63.33;99904.91;5028430;28;20052;-39
2022/04/19 09:51:13;;;;;;;5.72;3.90;;;;;;;9.42;64.38;99904.31;5028532;28;20029;-34
2022/04/19 09:53:44;;;;;;;7.95;4.75;;;;;;;9.32;63.10;99903.97;5028552;28;20038;-29
2022/04/19 09:56:13;;;;;;;6.00;4.13;;;;;;;9.50;61.63;99898.72;5027970;28;20307;-29
2022/04/19 09:58:41;;;;;;;11.35;6.97;;;;;;;9.60;64.96;99880.41;5012007;28;20547;-29
2022/04/19 10:01:07;;;;;;;13.18;8.90;;;;;;;9.22;69.38;99905.22;5028323;28;20034;-34
2022/04/19 10:09:06;;;;;;;17.63;15.90;;;;;;;8.84;69.92;99892.72;5029492;28;20047;-30
2022/04/19 10:11:31;;;;;;;15.38;12.95;;;;;;;9.18;68.27;99888.06;5028041;28;20037;-30
2022/04/19 10:13:58;;;;;;;17.50;9.85;;;;;;;9.34;67.02;99883.28;5029472;28;20036;-30
2022/04/19 10:16:24;;;;;;;19.45;12.07;;;;;;;10.10;66.01;99900.88;5027671;28;20028;-32
2022/04/19 10:18:50;;;;;;;9.63;6.18;;;;;;;10.29;63.76;99890.25;5027689;28;20022;-30
2022/04/19 10:21:28;;;;;;;14.27;7.88;;;;;;;10.41;63.41;99894.63;5029058;28;20084;-33
2022/04/19 10:24:15;;;;;;;8.40;5.20;;;;;;;10.47;61.71;99894.81;5029145;28;20559;-30
2022/04/19 10:26:48;;;;;;;8.85;5.35;;;;;;;10.31;66.11;99897.00;5027396;28;20689;-29
2022/04/19 10:29:29;;;;;;;8.27;5.03;;;;;;;10.67;66.64;99898.06;5028880;28;20044;-30
2022/04/19 10:32:03;;;;;;;23.38;10.10;;;;;;;11.29;61.30;99902.38;5027557;28;20033;-30
2022/04/19 10:34:31;;;;;;;11.82;8.50;;;;;;;11.26;64.65;99893.78;5027260;28;20116;-29
2022/04/19 10:37:18;;;;;;;21.83;19.77;;;;;;;11.52;61.43;99891.75;5028482;28;20085;-32
2022/04/19 10:39:49;;;;;;;52.03;47.50;;;;;;;11.91;58.11;99896.72;5027416;28;20025;-32
2022/04/19 10:42:40;;;;;;;23.40;21.02;;;;;;;11.54;59.08;99889.66;5027485;28;20580;-30
2022/04/19 10:45:11;;;;;;;17.45;10.45;;;;;;;10.95;61.02;99886.00;5028678;28;20092;-32
2022/04/19 10:47:57;;;;;;;9.15;6.85;;;;;;;11.56;57.88;99892.09;5028991;28;20037;-29
2022/04/19 10:50:39;;;;;;;8.93;7.88;;;;;;;12.09;55.41;99895.78;5024111;28;20073;-30
2022/04/19 10:53:10;;;;;;;13.05;6.68;;;;;;;12.36;56.90;99896.94;5027322;28;20476;-31
2022/04/19 10:55:37;;;;;;;6.95;4.72;;;;;;;12.14;53.88;99903.94;5027226;28;20091;-32
2022/04/19 10:58:09;;;;;;;6.33;4.20;;;;;;;11.43;54.67;99887.78;5028321;28;20053;-31
2022/04/19 11:00:34;;;;;;;6.05;3.88;;;;;;;11.40;54.31;99878.38;5026808;28;20037;-33
2022/04/19 11:03:08;;;;;;;6.65;4.70;;;;;;;11.96;60.16;99875.47;5028081;28;20021;-41
2022/04/19 11:05:51;;;;;;;6.70;4.10;;;;;;;12.54;60.08;99868.41;5027056;28;20056;-30
2022/04/19 11:08:25;;;;;;;5.18;3.60;;;;;;;12.45;56.43;99884.81;5028255;28;20459;-31
2022/04/19 11:11:02;;;;;;;6.63;4.45;;;;;;;12.75;59.57;99891.84;5028600;28;20037;-32
2022/04/19 11:13:36;;;;;;;10.10;5.93;;;;;;;13.27;52.38;99873.00;5027147;28;20476;-33
2022/04/19 11:16:07;;;;;;;6.43;4.35;;;;;;;13.90;57.69;99897.09;5027016;28;20115;-33
2022/04/19 11:18:41;;;;;;;6.85;4.28;;;;;;;13.00;53.94;99891.53;5026141;28;20113;-29
2022/04/19 11:21:12;;;;;;;6.15;4.45;;;;;;;12.11;55.65;99888.34;5028309;28;20439;-29
2022/04/19 11:23:46;;;;;;;6.70;4.10;;;;;;;12.01;53.33;99879.06;5026529;28;20406;-33
2022/04/19 11:26:33;;;;;;;6.55;4.15;;;;;;;11.96;56.52;99878.13;5027026;28;20022;-30
2022/04/19 11:29:08;;;;;;;7.22;4.53;;;;;;;12.73;58.16;99880.59;5026885;28;20034;-29
2022/04/19 11:31:54;;;;;;;6.55;4.13;;;;;;;12.65;54.44;99871.06;5028084;28;20099;-31
2022/04/19 11:34:19;;;;;;;5.53;3.85;;;;;;;12.88;55.12;99871.22;5027502;28;20516;-35
2022/04/19 11:36:45;;;;;;;5.93;3.67;;;;;;;13.49;55.14;99877.69;5027873;28;20049;-30
2022/04/19 11:46:44;;;;;;;4.75;3.47;;;;;;;12.45;52.96;99874.13;5026882;28;20052;-29
2022/04/19 11:47:48;;;;;;;6.55;3.80;;;;;;;13.49;51.35;99861.63;5028128;28;20044;-29
2022/04/19 11:50:30;;;;;;;6.18;3.40;;;;;;;12.76;50.55;99874.75;5026337;28;20025;-30
2022/04/19 11:52:56;;;;;;;4.95;3.55;;;;;;;12.69;53.26;99852.69;5027613;28;20063;-29
2022/04/19 11:55:25;;;;;;;12.20;4.03;;;;;;;12.43;54.01;99872.75;5026433;28;20113;-29
2022/04/19 11:58:09;;;;;;;8.40;6.03;;;;;;;12.32;52.51;99874.41;5026471;28;20120;-31
2022/04/19 12:00:36;;;;;;;4.57;3.22;;;;;;;11.76;56.00;99854.41;5026089;28;20188;-35
2022/04/19 12:03:21;;;;;;;4.88;3.30;;;;;;;12.32;53.31;99871.72;5026203;28;20123;-30
2022/04/19 12:05:47;;;;;;;6.25;3.05;;;;;;;12.24;50.36;99861.38;5027858;28;20155;-30
2022/04/19 12:08:12;;;;;;;5.25;3.78;;;;;;;12.64;55.57;99863.25;5027600;28;20120;-30
2022/04/19 12:10:40;;;;;;;6.35;3.60;;;;;;;12.36;51.11;99846.13;5027379;28;20026;-31
2022/04/19 12:13:05;;;;;;;7.55;4.80;;;;;;;12.72;53.63;99862.88;5026003;28;20105;-31
2022/04/19 12:15:41;;;;;;;5.47;3.97;;;;;;;12.64;49.55;99865.94;5027227;28;20108;-33